Time;durP1;ratioP1;P1;durP2;ratioP2;P2;SDS_P1;SDS_P2;PMS_P1;PMS_P2;Temp;Humidity;BMP_temperature;BMP_pressure;BME280_temperature;BME280_humidity;BME280_pressure;Samples;Min_cycle;Max_cycle;Signal;HPM_P1;HPM_P2
2022/01/21 00:01:05;;;;;;;1.05;0.70;;;;;;;-0.52;38.11;92785.19;4989728;28;20134;-88
2022/01/21 00:03:52;;;;;;;1.15;0.77;;;;;;;-0.19;37.34;92835.56;4965168;28;20071;-89
2022/01/21 00:06:21;;;;;;;0.68;0.68;;;;;;;-0.40;37.23;92780.16;4990148;28;20055;-89
2022/01/21 00:08:52;;;;;;;0.70;0.70;;;;;;;0.06;36.62;92840.66;4988569;28;20511;-89
2022/01/21 00:11:25;;;;;;;0.70;0.70;;;;;;;0.03;36.45;92814.59;4990914;28;20506;-90
2022/01/21 00:14:01;;;;;;;1.15;0.85;;;;;;;-0.25;36.25;92782.38;4989933;28;20032;-89
2022/01/21 00:16:43;;;;;;;;;;;;;;;;;;;;;
2022/01/21 00:19:29;;;;;;;;;;;;;;;;;;;;;
2022/01/21 00:30:13;;;;;;;2.25;0.80;;;;;;;0.18;36.42;92841.56;4970623;28;20046;-89
2022/01/21 00:32:42;;;;;;;1.35;0.70;;;;;;;0.27;36.21;92841.25;4974565;28;20038;-89
2022/01/21 00:35:10;;;;;;;1.10;0.80;;;;;;;0.31;35.99;92838.03;4959468;28;20093;-88
2022/01/21 00:37:35;;;;;;;1.15;0.80;;;;;;;0.41;35.73;92837.56;4958247;28;20098;-88
2022/01/21 00:40:05;;;;;;;1.33;0.90;;;;;;;0.08;36.24;92771.75;4955557;28;20139;-89
2022/01/21 00:43:10;;;;;;;2.95;0.90;;;;;;;0.02;36.14;92767.44;4990625;28;20106;-88
2022/01/21 00:45:36;;;;;;;1.25;0.80;;;;;;;0.04;35.41;92780.13;4984364;28;20074;-89
2022/01/21 00:48:17;;;;;;;1.42;0.93;;;;;;;0.22;36.29;92812.81;4974838;28;20030;-88
2022/01/21 00:50:47;;;;;;;0.77;0.73;;;;;;;0.19;36.26;92816.59;4988509;28;20130;-87
2022/01/21 00:53:16;;;;;;;0.90;0.68;;;;;;;0.16;36.62;92835.06;4990414;28;20046;-88
2022/01/21 00:55:44;;;;;;;1.58;1.00;;;;;;;-0.10;35.96;92772.53;4993675;28;20065;-88
2022/01/21 00:58:15;;;;;;;1.20;0.85;;;;;;;-0.11;36.15;92770.16;4989671;28;20038;-88
2022/01/21 01:00:41;;;;;;;2.78;1.10;;;;;;;0.43;35.89;92843.28;4973222;28;20408;-88
2022/01/21 01:03:06;;;;;;;0.70;0.70;;;;;;;0.03;35.94;92778.56;4992974;28;20037;-88
2022/01/21 01:05:37;;;;;;;1.30;0.85;;;;;;;0.07;36.16;92784.81;4989854;28;20038;-89
2022/01/21 01:08:21;;;;;;;;;;;;;;;;;;;;;
2022/01/21 01:21:29;;;;;;;0.98;0.80;;;;;;;0.10;36.00;92797.28;4996949;28;20517;-87
2022/01/21 01:29:27;;;;;;;1.33;0.85;;;;;;;0.87;34.53;92877.47;4994808;28;20042;-88
2022/01/21 01:31:53;;;;;;;0.70;0.70;;;;;;;0.66;35.14;92862.47;4963562;28;20160;-88
2022/01/21 01:34:19;;;;;;;1.35;0.90;;;;;;;0.78;35.19;92868.44;4963163;28;20180;-88
2022/01/21 01:36:47;;;;;;;1.30;0.93;;;;;;;0.44;35.30;92857.72;4964613;28;20037;-88
2022/01/21 01:39:33;;;;;;;0.70;0.70;;;;;;;0.32;35.52;92838.84;4981168;28;20045;-88
2022/01/21 01:50:05;;;;;;;1.25;0.80;;;;;;;0.22;35.63;92815.38;4995799;28;20549;-88
2022/01/21 01:52:51;;;;;;;;;;;;;;;;;;;;;
2022/01/21 01:55:27;;;;;;;1.23;0.73;;;;;;;0.48;35.37;92830.53;4997268;28;20050;-88
2022/01/21 01:57:56;;;;;;;0.60;0.57;;;;;;;0.52;34.79;92818.81;4966187;28;20042;-88
2022/01/21 02:00:27;;;;;;;1.10;0.90;;;;;;;0.24;35.04;92772.19;4983671;28;20065;-89
2022/01/21 02:03:06;;;;;;;1.00;0.63;;;;;;;0.57;35.16;92802.69;4997218;28;20287;-89
2022/01/21 02:05:43;;;;;;;0.60;0.60;;;;;;;0.32;35.19;92751.28;4976787;28;20057;-88
2022/01/21 02:08:15;;;;;;;1.80;1.00;;;;;;;0.15;35.25;92718.38;4992789;28;20036;-89
2022/01/21 02:10:43;;;;;;;0.70;0.70;;;;;;;0.40;34.39;92722.66;4983771;28;20133;-89
2022/01/21 02:13:29;;;;;;;1.45;0.85;;;;;;;0.27;35.09;92697.06;5013064;28;20042;-89
2022/01/21 02:16:32;;;;;;;0.98;0.75;;;;;;;0.26;34.47;92688.56;4991554;28;20046;-88
2022/01/21 02:22:05;;;;;;;1.42;0.80;;;;;;;0.47;34.44;92701.97;4979823;28;20050;-89
2022/01/21 02:24:48;;;;;;;0.98;0.73;;;;;;;0.32;34.50;92689.50;5000767;28;20057;-88
2022/01/21 02:27:33;;;;;;;0.63;0.60;;;;;;;0.45;34.39;92707.34;4966138;28;20038;-88
2022/01/21 02:30:05;;;;;;;0.88;0.73;;;;;;;0.87;33.89;92766.63;4984796;28;20067;-89
2022/01/21 02:32:32;;;;;;;1.17;0.85;;;;;;;0.71;34.30;92754.34;4974846;28;20507;-87
2022/01/21 02:35:16;;;;;;;1.25;0.73;;;;;;;0.20;34.52;92679.13;4996967;28;20505;-89
2022/01/21 02:37:54;;;;;;;;;;;;;;;;;;;;;
2022/01/21 02:40:33;;;;;;;0.80;0.70;;;;;;;0.33;34.42;92706.50;5013874;28;20054;-88
2022/01/21 02:43:07;;;;;;;2.97;0.65;;;;;;;0.16;34.42;92675.44;4996757;28;20227;-88
2022/01/21 02:45:46;;;;;;;1.20;0.70;;;;;;;0.47;34.05;92712.25;4975868;28;20030;-88
2022/01/21 02:48:12;;;;;;;3.63;0.70;;;;;;;0.22;34.03;92671.97;5002940;28;20044;-88
2022/01/21 02:50:49;;;;;;;1.27;0.82;;;;;;;0.12;33.94;92667.34;4978720;28;20064;-89
2022/01/21 02:53:27;;;;;;;1.10;0.68;;;;;;;0.22;33.99;92663.47;4994947;28;20041;-89
2022/01/21 02:55:56;;;;;;;1.10;0.90;;;;;;;0.29;34.15;92661.59;4991587;28;20046;-88
2022/01/21 02:58:40;;;;;;;1.02;0.85;;;;;;;0.56;33.60;92701.44;4970503;28;20034;-89
2022/01/21 03:01:16;;;;;;;1.27;0.80;;;;;;;0.32;33.32;92638.00;4977581;28;20089;-89
2022/01/21 03:03:54;;;;;;;0.82;0.70;;;;;;;0.55;32.90;92678.47;4995407;28;20053;-89
2022/01/21 03:06:35;;;;;;;;;;;;;;;;;;;;;
2022/01/21 03:09:08;;;;;;;1.13;0.70;;;;;;;0.62;32.06;92661.91;4984325;28;20044;-89
2022/01/21 03:11:42;;;;;;;1.83;0.88;;;;;;;0.50;32.30;92663.69;4993395;28;20038;-88
2022/01/21 03:14:15;;;;;;;3.00;0.70;;;;;;;0.70;32.63;92696.09;4956845;28;20068;-88
2022/01/21 03:16:51;;;;;;;0.70;0.60;;;;;;;0.55;32.45;92681.81;4984698;28;20038;-88
2022/01/21 03:19:36;;;;;;;1.00;0.80;;;;;;;0.66;32.93;92731.06;4967730;28;20029;-89
2022/01/21 03:22:09;;;;;;;0.85;0.80;;;;;;;0.30;32.38;92681.97;4964280;28;20046;-89
2022/01/21 03:24:45;;;;;;;0.70;0.70;;;;;;;0.29;32.84;92689.91;4980104;28;20063;-88
2022/01/21 03:27:16;;;;;;;1.30;0.75;;;;;;;0.32;32.82;92679.19;4977253;28;20139;-88
2022/01/21 03:30:05;;;;;;;;;;;;;;;;;;;;;
2022/01/21 03:32:43;;;;;;;0.63;0.63;;;;;;;0.67;31.98;92696.53;4994615;28;20060;-88
2022/01/21 03:35:14;;;;;;;2.75;0.90;;;;;;;0.32;32.53;92676.63;4993130;28;20038;-88
2022/01/21 03:37:42;;;;;;;1.65;0.95;;;;;;;0.22;32.11;92669.38;4993498;28;20049;-88
2022/01/21 03:40:18;;;;;;;0.73;0.73;;;;;;;0.47;32.33;92740.59;4977614;28;20040;-88
2022/01/21 03:42:56;;;;;;;3.50;0.70;;;;;;;0.37;31.42;92677.50;4974620;28;20507;-89
2022/01/21 03:45:44;;;;;;;0.85;0.60;;;;;;;0.37;31.51;92662.06;4975509;28;20042;-89
2022/01/21 03:51:11;;;;;;;1.23;0.93;;;;;;;0.18;32.48;92651.03;5005916;28;20046;-90
2022/01/21 03:53:49;;;;;;;0.93;0.77;;;;;;;0.36;32.33;92685.44;4995202;28;20399;-89
2022/01/21 03:56:28;;;;;;;0.88;0.80;;;;;;;0.25;32.25;92673.31;4964516;28;20038;-88
2022/01/21 03:59:14;;;;;;;;;;;;;;;;;;;;;
2022/01/21 04:01:52;;;;;;;0.70;0.70;;;;;;;-0.01;31.92;92659.78;5011224;28;20052;-89
2022/01/21 04:04:29;;;;;;;0.70;0.70;;;;;;;0.41;31.26;92685.59;4980449;28;20070;-89
2022/01/21 04:07:09;;;;;;;;;;;;;;;;;;;;;
2022/01/21 04:09:45;;;;;;;0.63;0.63;;;;;;;-0.06;32.55;92690.53;4975931;28;20037;-89
2022/01/21 04:12:19;;;;;;;0.60;0.60;;;;;;;0.06;31.21;92688.81;4965517;28;20096;-89
2022/01/21 04:14:58;;;;;;;;;;;;;;;;;;;;;
2022/01/21 04:17:36;;;;;;;1.15;0.82;;;;;;;0.11;31.57;92714.69;4996847;28;20120;-89
2022/01/21 04:20:19;;;;;;;1.50;0.80;;;;;;;-0.27;32.37;92656.53;4996364;28;20041;-88
2022/01/21 04:22:50;;;;;;;1.73;0.90;;;;;;;-0.05;32.34;92697.25;4980243;28;20030;-89
2022/01/21 04:25:24;;;;;;;1.25;0.73;;;;;;;-0.31;31.57;92657.19;4995352;28;20026;-88
2022/01/21 04:28:04;;;;;;;0.68;0.63;;;;;;;0.02;32.24;92707.47;4979726;28;20030;-89
2022/01/21 04:30:40;;;;;;;1.65;0.90;;;;;;;-0.16;32.53;92678.16;4989191;28;20695;-89
2022/01/21 04:33:12;;;;;;;1.13;0.73;;;;;;;-0.39;32.53;92689.09;4980493;28;20126;-89
2022/01/21 04:35:41;;;;;;;3.08;1.00;;;;;;;-0.35;32.39;92697.97;4978532;28;20026;-88
2022/01/21 04:38:13;;;;;;;1.40;0.95;;;;;;;-0.30;32.14;92689.59;4991758;28;20113;-89
2022/01/21 04:40:54;;;;;;;0.60;0.60;;;;;;;-0.11;30.71;92693.75;4968165;28;20042;-88
2022/01/21 04:48:54;;;;;;;0.68;0.63;;;;;;;0.34;30.69;92764.75;4986862;28;20041;-89
2022/01/21 04:51:27;;;;;;;1.52;1.00;;;;;;;0.38;30.85;92769.25;4981756;28;20049;-88
2022/01/21 04:54:08;;;;;;;3.70;0.80;;;;;;;0.12;30.22;92739.44;4996943;28;20030;-88
2022/01/21 04:56:42;;;;;;;0.70;0.70;;;;;;;0.51;30.38;92781.16;4963100;28;20095;-88
2022/01/21 04:59:08;;;;;;;1.30;0.90;;;;;;;0.16;30.18;92747.53;4964175;28;20064;-89
2022/01/21 05:01:38;;;;;;;1.63;0.75;;;;;;;0.32;30.22;92787.34;4995966;28;20073;-89
2022/01/21 05:04:10;;;;;;;0.70;0.70;;;;;;;0.10;31.05;92774.13;4974935;28;20054;-88
2022/01/21 05:06:41;;;;;;;2.25;0.90;;;;;;;-0.24;31.17;92748.72;4981296;28;20045;-89
2022/01/21 05:09:42;;;;;;;2.45;1.30;;;;;;;-0.01;31.14;92803.91;4999734;28;20048;-89
2022/01/21 05:12:17;;;;;;;4.75;0.85;;;;;;;-0.35;30.68;92740.91;4971091;28;20038;-89
2022/01/21 05:14:51;;;;;;;1.40;1.08;;;;;;;-0.05;30.63;92761.59;4998488;28;20426;-89
2022/01/21 05:17:49;;;;;;;1.40;0.80;;;;;;;-0.45;31.11;92728.53;5019885;28;20033;-90
2022/01/21 05:20:31;;;;;;;4.75;0.77;;;;;;;-0.33;30.86;92733.78;4995059;28;20054;-88
2022/01/21 05:23:29;;;;;;;1.15;0.80;;;;;;;0.18;30.62;92823.53;4997910;28;20487;-88
2022/01/21 05:26:04;;;;;;;0.88;0.77;;;;;;;-0.10;29.41;92738.28;4996716;28;20038;-89
2022/01/21 05:28:46;;;;;;;;;;;;;;;;;;;;;
2022/01/21 05:31:49;;;;;;;0.85;0.80;;;;;;;-0.03;31.40;92801.56;5012587;28;20049;-88
2022/01/21 05:34:46;;;;;;;0.70;0.70;;;;;;;-0.58;30.82;92738.97;5003164;28;20499;-89
2022/01/21 05:37:36;;;;;;;0.70;0.70;;;;;;;-0.66;30.68;92740.00;4990694;28;20037;-89
2022/01/21 05:40:20;;;;;;;3.25;1.20;;;;;;;-0.38;30.82;92777.34;4976506;28;20050;-90
2022/01/21 05:43:21;;;;;;;2.67;0.75;;;;;;;-0.42;31.19;92780.34;4995068;28;20116;-89
2022/01/21 05:46:57;;;;;;;2.35;1.13;;;;;;;-0.58;30.35;92751.81;4981754;28;20064;-88
2022/01/21 05:49:40;;;;;;;9.40;0.95;;;;;;;-0.67;30.63;92741.78;4989183;28;20502;-89
2022/01/21 05:52:35;;;;;;;0.68;0.68;;;;;;;-0.73;30.98;92755.47;5012747;28;20042;-89
2022/01/21 05:55:13;;;;;;;3.13;1.05;;;;;;;-0.71;30.46;92758.63;4983034;28;20054;-89
2022/01/21 05:57:55;;;;;;;;;;;;;;;;;;;;;
2022/01/21 06:00:41;;;;;;;1.75;0.90;;;;;;;-0.46;30.82;92809.28;4996810;28;20033;-88
2022/01/21 06:03:09;;;;;;;1.08;0.77;;;;;;;-0.51;30.65;92803.97;4989291;28;20041;-89
2022/01/21 06:05:43;;;;;;;0.60;0.60;;;;;;;-0.69;31.19;92784.16;4979898;28;20612;-90
2022/01/21 06:09:00;;;;;;;0.65;0.65;;;;;;;-0.77;30.80;92774.88;5016964;28;20383;-91
2022/01/21 06:15:35;;;;;;;2.17;0.85;;;;;;;-0.34;30.82;92835.88;5016899;28;20140;-90
2022/01/21 06:18:01;;;;;;;2.03;0.98;;;;;;;-0.26;31.05;92842.56;4982917;28;20038;-89
2022/01/21 06:20:43;;;;;;;0.85;0.77;;;;;;;-0.45;30.61;92827.06;4981825;28;20545;-90
2022/01/21 06:23:11;;;;;;;3.88;0.90;;;;;;;-0.76;30.70;92763.63;4998627;28;20038;-89
2022/01/21 06:26:03;;;;;;;1.85;0.93;;;;;;;-0.75;30.79;92778.03;4969456;28;20028;-89
2022/01/21 06:28:31;;;;;;;0.70;0.70;;;;;;;-0.53;31.25;92818.84;4993731;28;20077;-89
2022/01/21 06:30:59;;;;;;;0.70;0.70;;;;;;;-0.51;30.44;92822.75;4982411;28;20506;-89
2022/01/21 06:33:48;;;;;;;0.60;0.60;;;;;;;-0.26;30.41;92874.22;4998689;28;20034;-90
2022/01/21 06:40:09;;;;;;;1.38;0.90;;;;;;;0.00;30.26;92890.44;4996439;28;20036;-89
2022/01/21 06:42:36;;;;;;;1.35;1.00;;;;;;;0.01;29.96;92889.44;4962599;28;20043;-89
2022/01/21 06:45:03;;;;;;;0.68;0.68;;;;;;;0.12;29.58;92891.31;4962995;28;20034;-89
2022/01/21 06:47:29;;;;;;;0.80;0.70;;;;;;;-0.06;29.22;92886.13;4962656;28;20042;-89
2022/01/21 06:49:58;;;;;;;2.80;1.05;;;;;;;-0.04;29.87;92891.88;4962157;28;20026;-89
2022/01/21 06:52:26;;;;;;;1.60;0.95;;;;;;;-0.10;30.48;92903.78;4978965;28;20042;-90
2022/01/21 06:54:59;;;;;;;2.05;1.15;;;;;;;-0.17;29.98;92902.25;4978479;28;20128;-89
2022/01/21 06:57:30;;;;;;;2.42;1.30;;;;;;;-0.40;29.97;92865.03;4997533;28;20093;-91
2022/01/21 07:00:01;;;;;;;2.58;0.98;;;;;;;-0.52;30.32;92846.13;4978946;28;20495;-90
2022/01/21 07:02:50;;;;;;;2.05;1.15;;;;;;;-0.12;29.71;92884.41;4961611;28;20492;-90
2022/01/21 07:05:37;;;;;;;1.20;0.82;;;;;;;0.19;28.89;92912.63;4975411;28;20035;-89
2022/01/21 07:08:04;;;;;;;1.50;1.00;;;;;;;-0.37;29.43;92858.69;4975233;28;20046;-90
2022/01/21 07:11:00;;;;;;;;;;;;;;;;;;;;;
2022/01/21 07:13:30;;;;;;;1.67;1.10;;;;;;;-0.23;30.01;92904.66;4975241;28;20043;-91
2022/01/21 07:15:58;;;;;;;1.60;0.95;;;;;;;-0.54;30.07;92860.97;4976023;28;20030;-90
2022/01/21 07:26:05;;;;;;;0.90;0.82;;;;;;;6.34;20.29;92903.34;4976675;28;20057;-90
2022/01/21 07:32:30;;;;;;;;;;;;;;;9.64;17.96;92947.91;4998145;28;20109;-91
2022/01/21 07:51:51;;;;;;;2.25;0.98;;;;;;;14.82;12.82;92918.50;5015331;28;20076;-90
2022/01/21 07:58:47;;;;;;;2.47;1.08;;;;;;;16.42;11.38;92956.13;5014070;28;20138;-90
2022/01/21 08:02:04;;;;;;;1.25;0.90;;;;;;;15.85;11.94;92953.56;4965004;28;20037;-90
2022/01/21 08:04:30;;;;;;;2.90;1.08;;;;;;;16.90;11.05;92927.19;4997942;28;20045;-91
2022/01/21 08:06:55;;;;;;;1.95;1.20;;;;;;;16.36;11.48;92962.63;4999434;28;20038;-90
2022/01/21 08:09:33;;;;;;;2.45;1.23;;;;;;;16.13;11.46;92948.78;4988445;28;20057;-90
2022/01/21 08:16:08;;;;;;;3.97;1.10;;;;;;;18.02;9.80;92949.84;5015052;28;20045;-91
2022/01/21 08:22:34;;;;;;;2.05;0.85;;;;;;;18.90;9.38;92972.00;5019058;28;20558;-91
2022/01/21 08:29:39;;;;;;;1.52;0.90;;;;;;;18.86;9.60;92973.72;5018416;28;20133;-91
2022/01/21 08:32:05;;;;;;;4.03;1.10;;;;;;;18.23;9.41;92959.69;5000541;28;20042;-91
2022/01/21 08:34:34;;;;;;;3.80;1.05;;;;;;;19.37;9.37;92989.50;4984664;28;20025;-91
2022/01/21 08:37:10;;;;;;;1.23;0.90;;;;;;;19.20;9.21;93010.91;4984898;28;20046;-91
2022/01/21 08:43:33;;;;;;;2.78;1.10;;;;;;;19.63;9.63;92983.13;5018278;28;20110;-91
2022/01/21 08:45:59;;;;;;;1.73;1.10;;;;;;;16.05;10.56;92975.94;5001401;28;20169;-90
2022/01/21 08:48:25;;;;;;;2.58;1.20;;;;;;;18.02;10.14;93002.81;4984075;28;20085;-90
2022/01/21 08:51:28;;;;;;;;;;;;;;;;;;;;;
2022/01/21 08:54:29;;;;;;;2.50;1.15;;;;;;;17.99;9.81;93023.84;5018834;28;20431;-92
2022/01/21 08:57:07;;;;;;;1.20;0.98;;;;;;;19.88;9.03;92989.25;4968543;28;20096;-91
2022/01/21 09:07:50;;;;;;;2.45;1.10;;;;;;;14.43;11.31;93030.53;4976668;28;20086;-89
2022/01/21 09:19:07;;;;;;;2.17;0.90;;;;;;;12.76;12.52;93004.38;5017375;28;20108;-90
2022/01/21 09:29:34;;;;;;;2.33;1.00;;;;;;;11.17;14.53;93022.03;5015916;28;20045;-89
2022/01/21 09:40:46;;;;;;;1.98;0.82;;;;;;;11.55;14.85;93025.56;5017233;28;20055;-90
2022/01/21 09:51:06;;;;;;;0.93;0.70;;;;;;;12.20;13.83;93038.22;5016593;28;20136;-90
2022/01/21 09:53:35;;;;;;;3.53;1.20;;;;;;;11.68;14.49;93039.84;4984727;28;20064;-89
2022/01/21 09:56:07;;;;;;;1.40;0.90;;;;;;;11.19;14.47;93012.00;4984231;28;20057;-90
2022/01/21 09:58:33;;;;;;;4.25;0.90;;;;;;;11.58;13.82;93035.50;4969182;28;20065;-90
2022/01/21 10:01:02;;;;;;;1.60;0.82;;;;;;;11.88;14.33;93039.63;5010369;28;20468;-90
2022/01/21 10:04:07;;;;;;;1.67;0.93;;;;;;;11.86;14.23;92998.97;4989425;28;20053;-91
2022/01/21 10:06:56;;;;;;;1.30;0.90;;;;;;;10.90;14.72;92965.66;4980944;28;20117;-90
2022/01/21 10:13:02;;;;;;;2.20;0.93;;;;;;;11.18;13.50;93026.19;4984561;28;20043;-90
2022/01/21 10:15:49;;;;;;;2.05;1.10;;;;;;;10.37;14.13;93028.34;4976367;28;20039;-90
2022/01/21 10:19:05;;;;;;;1.80;1.15;;;;;;;9.62;15.63;93044.88;4960297;28;20047;-90
2022/01/21 10:22:10;;;;;;;1.98;1.30;;;;;;;10.10;14.54;92992.88;4943862;28;20492;-89
2022/01/21 10:25:01;;;;;;;1.55;0.80;;;;;;;9.83;14.59;92992.50;4958935;28;20212;-90
2022/01/21 10:28:05;;;;;;;1.80;1.08;;;;;;;9.25;14.94;93008.63;4976595;28;20054;-90
2022/01/21 10:31:04;;;;;;;;;;;;;;;;;;;;;
2022/01/21 10:34:15;;;;;;;;;;;;;;;;;;;;;
2022/01/21 10:37:29;;;;;;;1.85;1.10;;;;;;;9.42;14.61;92997.91;5000498;28;20037;-90
2022/01/21 10:40:01;;;;;;;2.00;1.02;;;;;;;9.12;15.63;93002.16;4974752;28;20046;-89
2022/01/21 10:42:48;;;;;;;;;;;;;;;;;;;;;
2022/01/21 10:46:01;;;;;;;;;;;;;;;;;;;;;
2022/01/21 10:49:32;;;;;;;2.35;0.75;;;;;;;10.75;13.34;92976.25;4978435;28;20391;-89
2022/01/21 10:52:13;;;;;;;;;;;;;;;;;;;;;
2022/01/21 10:54:53;;;;;;;1.45;0.70;;;;;;;10.58;14.28;92966.97;4949929;28;20407;-89
2022/01/21 10:57:30;;;;;;;2.13;1.08;;;;;;;11.15;13.82;92990.06;4997789;28;20033;-90
2022/01/21 11:00:11;;;;;;;1.63;0.93;;;;;;;11.53;13.67;92966.59;4958723;28;20027;-89
2022/01/21 11:03:18;;;;;;;2.63;0.80;;;;;;;11.32;13.28;92993.03;4984885;28;20053;-89
2022/01/21 11:06:23;;;;;;;1.98;1.05;;;;;;;11.62;13.05;93020.00;4962323;28;20044;-90
2022/01/21 11:09:51;;;;;;;1.25;0.80;;;;;;;11.21;13.60;93030.88;4962664;28;20102;-89
2022/01/21 11:12:26;;;;;;;1.83;0.90;;;;;;;10.91;13.56;92969.84;5013691;28;20446;-89
2022/01/21 11:15:23;;;;;;;0.98;0.63;;;;;;;11.99;12.66;93018.53;5008589;28;20124;-89
2022/01/21 11:18:17;;;;;;;0.75;0.63;;;;;;;12.03;12.41;92967.84;4998485;28;20085;-89
2022/01/21 11:21:03;;;;;;;;;;;;;;;;;;;;;
2022/01/21 11:23:48;;;;;;;2.30;0.90;;;;;;;11.36;15.32;92973.06;5018035;28;20120;-90
2022/01/21 11:26:34;;;;;;;;;;;;;;;;;;;;;
2022/01/21 11:32:57;;;;;;;;;;;;;;;;;;;;;
2022/01/21 11:35:39;;;;;;;1.73;1.13;;;;;;;12.25;15.68;92972.53;5034972;28;20041;-90
2022/01/21 11:38:25;;;;;;;1.10;0.73;;;;;;;11.50;16.21;92957.44;5001031;28;20041;-90
2022/01/21 11:41:16;;;;;;;;;;;;;;;;;;;;;
2022/01/21 11:44:14;;;;;;;3.35;1.35;;;;;;;11.44;16.23;92967.22;5016348;28;20072;-92
2022/01/21 11:47:01;;;;;;;1.23;0.88;;;;;;;10.77;16.88;92953.97;5017711;28;20033;-92
2022/01/21 11:49:33;;;;;;;0.82;0.73;;;;;;;11.29;16.36;92983.09;4998967;28;20045;-92
2022/01/21 11:52:20;;;;;;;0.70;0.70;;;;;;;11.49;15.75;93005.72;5032448;28;20417;-91
2022/01/21 11:55:22;;;;;;;1.33;0.85;;;;;;;11.34;16.77;92974.41;5016527;28;20502;-89
2022/01/21 11:58:24;;;;;;;3.13;1.48;;;;;;;11.13;16.49;92960.72;4999400;28;20033;-89
2022/01/21 12:01:05;;;;;;;1.63;0.95;;;;;;;10.65;16.69;92961.44;5016575;28;20048;-91
2022/01/21 12:03:57;;;;;;;1.52;0.90;;;;;;;11.33;16.14;92997.22;5016450;28;20085;-91
2022/01/21 12:09:57;;;;;;;2.97;0.80;;;;;;;11.79;15.16;93012.44;5003886;28;20033;-91
2022/01/21 12:12:44;;;;;;;2.25;1.00;;;;;;;11.05;16.02;93001.41;5001086;28;20080;-90
2022/01/21 12:15:41;;;;;;;2.28;1.00;;;;;;;11.18;15.65;92981.63;5016354;28;20072;-92
2022/01/21 12:26:07;;;;;;;;;;;;;;;;;;;;;
2022/01/21 12:29:22;;;;;;;1.60;1.05;;;;;;;12.29;14.93;93018.16;5002563;28;20100;-91
2022/01/21 12:33:10;;;;;;;1.60;1.00;;;;;;;11.64;15.28;93017.84;4973663;28;20049;-91
2022/01/21 12:39:48;;;;;;;1.83;0.88;;;;;;;11.40;14.92;93015.25;4973456;28;20134;-90
2022/01/21 12:42:47;;;;;;;1.30;0.82;;;;;;;11.35;15.25;92949.75;5000725;28;20045;-91
2022/01/21 12:45:23;;;;;;;6.22;1.45;;;;;;;11.81;14.16;93007.69;4985868;28;20048;-90
2022/01/21 12:47:55;;;;;;;3.92;1.08;;;;;;;9.50;15.42;92932.81;5016885;28;20415;-90
2022/01/21 12:50:57;;;;;;;3.33;1.30;;;;;;;10.04;16.63;92941.66;5008635;28;20068;-91
2022/01/21 12:57:06;;;;;;;7.05;3.05;;;;;;;9.51;18.34;92968.31;5017233;28;20095;-90
2022/01/21 13:00:01;;;;;;;3.83;1.85;;;;;;;9.48;16.84;92934.09;5001219;28;20072;-90
2022/01/21 13:02:55;;;;;;;7.47;3.00;;;;;;;9.11;18.45;92922.22;5002153;28;20069;-91
2022/01/21 13:05:48;;;;;;;;;;;;;;;;;;;;;
2022/01/21 13:08:52;;;;;;;10.00;3.00;;;;;;;8.44;19.42;93000.56;5055856;28;20057;-91
2022/01/21 13:12:16;;;;;;;12.82;5.53;;;;;;;7.72;22.46;92927.44;5042076;28;20048;-90
2022/01/21 13:15:15;;;;;;;;;;;;;;;;;;;;;
2022/01/21 13:18:00;;;;;;;20.38;7.45;;;;;;;7.01;25.31;92976.63;5022003;28;20042;-90
2022/01/21 13:21:02;;;;;;;;;;;;;;;;;;;;;
2022/01/21 13:24:09;;;;;;;;;;;;;;;;;;;;;
2022/01/21 13:26:57;;;;;;;30.17;11.43;;;;;;;6.45;29.11;92902.38;5024135;28;20137;-90
2022/01/21 13:29:59;;;;;;;28.52;10.05;;;;;;;7.30;27.06;92925.75;5022593;28;20064;-91
2022/01/21 13:33:10;;;;;;;17.13;6.88;;;;;;;8.36;23.19;92922.81;5025560;28;20057;-90
2022/01/21 13:36:17;;;;;;;;;;;;;;;;;;;;;
2022/01/21 13:39:28;;;;;;;12.13;4.20;;;;;;;9.36;20.38;92922.13;5024330;28;20042;-90
2022/01/21 13:42:29;;;;;;;12.25;4.65;;;;;;;9.20;21.44;92920.63;5042960;28;20037;-90
2022/01/21 13:45:21;;;;;;;13.05;5.07;;;;;;;9.11;20.93;92943.09;5027396;28;20065;-92
2022/01/21 13:55:14;;;;;;;14.68;4.93;;;;;;;9.44;19.85;92923.41;5015562;28;20115;-90
2022/01/21 13:58:04;;;;;;;30.85;12.85;;;;;;;9.97;25.83;92941.97;5016284;28;20041;-91
2022/01/21 14:00:45;;;;;;;;;;;;;;;;;;;;;
2022/01/21 14:03:33;;;;;;;45.90;18.27;;;;;;;9.11;30.67;92969.22;5016840;28;20414;-91
2022/01/21 14:06:11;;;;;;;49.22;17.08;;;;;;;9.88;29.32;93003.72;4983149;28;20034;-91
2022/01/21 14:09:02;;;;;;;;;;;;;;;;;;;;;
2022/01/21 14:19:22;;;;;;;;;;;;;;;;;;;;;
2022/01/21 14:22:18;;;;;;;26.88;11.05;;;;;;;9.64;25.20;92974.81;4998214;28;20132;-91
2022/01/21 14:25:39;;;;;;;29.27;12.00;;;;;;;9.97;25.53;92975.16;5002271;28;20081;-90
2022/01/21 14:28:21;;;;;;;38.13;14.63;;;;;;;9.32;27.79;92965.53;5015072;28;20486;-91
2022/01/21 14:30:55;;;;;;;42.20;15.05;;;;;;;9.11;29.15;92930.81;5015043;28;20046;-89
2022/01/21 14:34:00;;;;;;;43.58;16.80;;;;;;;8.85;28.19;92986.75;5000296;28;20052;-90
2022/01/21 14:36:32;;;;;;;53.88;19.63;;;;;;;8.06;33.14;92940.03;4999528;28;20034;-90
2022/01/21 14:39:34;;;;;;;;;;;;;;;;;;;;;
2022/01/21 14:42:07;;;;;;;61.25;21.20;;;;;;;7.27;37.01;92967.13;4998578;28;20042;-90
2022/01/21 14:44:49;;;;;;;;;;;;;;;;;;;;;
2022/01/21 14:47:43;;;;;;;64.90;22.58;;;;;;;6.37;38.96;92980.06;4998092;28;20038;-90
2022/01/21 14:50:41;;;;;;;57.15;20.58;;;;;;;6.41;39.82;93033.94;4984869;28;20034;-90
2022/01/21 14:53:45;;;;;;;58.10;21.02;;;;;;;5.96;40.22;92996.06;5015949;28;20390;-90
2022/01/21 14:56:24;;;;;;;59.47;21.08;;;;;;;5.88;40.31;92957.53;5014714;28;20112;-90
2022/01/21 15:02:33;;;;;;;60.97;21.08;;;;;;;5.52;41.58;92974.56;4983917;28;20060;-90
2022/01/21 15:05:14;;;;;;;60.65;19.90;;;;;;;5.74;42.13;93026.47;4997916;28;20176;-90
2022/01/21 15:08:09;;;;;;;62.10;23.00;;;;;;;5.31;43.27;93025.44;4998475;28;20061;-90
2022/01/21 15:10:41;;;;;;;65.80;24.30;;;;;;;4.89;43.85;93013.72;4998470;28;20049;-90
2022/01/21 15:16:26;;;;;;;58.97;20.48;;;;;;;5.26;43.47;93013.16;5014268;28;20049;-91
2022/01/21 15:19:04;;;;;;;64.60;21.83;;;;;;;5.19;42.97;92977.00;4997484;28;20050;-90
2022/01/21 15:22:11;;;;;;;;;;;;;;;;;;;;;
2022/01/21 15:25:02;;;;;;;54.22;21.02;;;;;;;4.26;45.88;93002.66;5004379;28;20046;-90
2022/01/21 15:27:41;;;;;;;58.17;21.20;;;;;;;3.59;47.77;92972.22;5020269;28;20479;-90
2022/01/21 15:36:47;;;;;;;63.85;21.55;;;;;;;3.92;47.72;93048.44;5025748;28;20053;-73
2022/01/21 15:39:15;;;;;;;63.00;21.08;;;;;;;3.83;47.38;93050.59;5024709;28;20483;-77
2022/01/21 15:41:42;;;;;;;65.00;22.33;;;;;;;3.80;48.39;93048.44;5033678;28;20489;-77
2022/01/21 15:44:07;;;;;;;68.85;21.90;;;;;;;3.85;48.16;93042.59;4960303;28;20084;-77
2022/01/21 15:46:34;;;;;;;68.75;24.10;;;;;;;3.77;48.78;93064.47;4993326;28;20104;-74
2022/01/21 15:49:00;;;;;;;58.67;22.08;;;;;;;3.72;49.03;93056.59;5011449;28;20049;-76
2022/01/21 15:51:28;;;;;;;60.42;23.65;;;;;;;3.58;48.94;93063.03;5010991;28;20046;-76
2022/01/21 15:53:54;;;;;;;65.53;22.65;;;;;;;3.50;49.35;93064.19;5009900;28;20506;-75
2022/01/21 15:56:19;;;;;;;62.90;22.95;;;;;;;3.44;49.42;93078.03;4992903;28;20338;-75
2022/01/21 15:58:47;;;;;;;60.63;21.40;;;;;;;3.30;49.97;93072.31;5015578;28;20014;-77
2022/01/21 16:01:14;;;;;;;67.47;22.08;;;;;;;3.12;50.00;93066.25;5011149;28;20037;-74
2022/01/21 16:03:42;;;;;;;64.65;21.67;;;;;;;3.08;50.36;93072.09;4993681;28;20511;-74
2022/01/21 16:06:11;;;;;;;60.95;21.65;;;;;;;2.98;50.97;93084.81;5011228;28;20038;-74
2022/01/21 16:08:38;;;;;;;55.72;21.23;;;;;;;2.84;51.07;93095.38;5011209;28;20045;-74
2022/01/21 16:11:05;;;;;;;70.88;24.08;;;;;;;2.75;50.80;93093.31;5011138;28;20045;-74
2022/01/21 16:13:32;;;;;;;65.95;23.35;;;;;;;2.57;51.63;93089.81;5011262;28;20033;-73
2022/01/21 16:16:05;;;;;;;60.15;21.38;;;;;;;2.53;52.02;93088.69;4993786;28;20049;-73
2022/01/21 16:18:35;;;;;;;66.10;22.20;;;;;;;2.42;52.04;93089.44;5011147;28;20042;-74
2022/01/21 16:21:05;;;;;;;63.58;23.20;;;;;;;2.35;53.22;93099.09;4993208;28;20050;-75
2022/01/21 16:23:32;;;;;;;62.38;21.45;;;;;;;2.25;53.21;93100.41;5010847;28;20034;-73
2022/01/21 16:25:57;;;;;;;68.35;22.10;;;;;;;2.14;53.45;93108.09;5003440;28;20038;-72
2022/01/21 16:28:23;;;;;;;65.72;22.48;;;;;;;2.03;52.94;93102.69;5010086;28;20149;-74
2022/01/21 16:30:53;;;;;;;65.18;21.13;;;;;;;1.90;53.56;93097.69;4993510;28;20037;-74
2022/01/21 16:33:21;;;;;;;57.47;20.70;;;;;;;1.81;54.33;93099.00;5011246;28;20072;-73
2022/01/21 16:35:48;;;;;;;78.10;25.88;;;;;;;1.68;54.50;93099.91;5010818;28;20136;-73
2022/01/21 16:38:14;;;;;;;77.13;23.70;;;;;;;1.58;54.68;93095.28;5013444;28;20040;-73
2022/01/21 16:40:40;;;;;;;72.60;21.35;;;;;;;1.50;55.55;93097.34;4996776;28;20445;-74
2022/01/21 16:43:08;;;;;;;64.80;22.48;;;;;;;1.40;54.76;93103.81;4997073;28;20076;-73